Westford, VT (05494)

8:44 PM EDT en Julio 24, 2017 (GMT -0400)
Coyote Ridge | | Change Station

Alt 472 ft 44.63 °N, 73.01 °W | Updated 1 second ago

Nublado
Nublado
57.9 ° F
Sensación térmica 57.9 ° F
N
2.0
Viento Variable Viento desde Norte
Gusts 2.5 mph

Hoy
Alta -- | Baja -- ° F
--% Posibilidad de precipitaciones
Ayer
Alta -- | Baja -- ° F
Precip. -- pul
Presión 29.95 pul
Visibilidad 10.0 Millas
Nubes Baja 2400 ft
Nublado 4600 ft
Punto de rocío 57 ° F
Humedad 97%
Precipitaciones 0.56 pul
Espesor de la nieve No disponible.
5:30 AM 8:26 PM
Creciente, 4% visible
METAR KBTV 242354Z 00000KT 10SM FEW024 OVC046 16/13 A2995 RMK AO2 RAE09 SLP141 P0000 60020 T01560133 10172 20150 53006
Presión 29.95 pul
Visibilidad 10.0 Millas
Nubes Baja 2400 ft
Nublado 4600 ft
Punto de rocío 57 ° F
Humedad 97%
Precipitaciones 0.56 pul
Espesor de la nieve No disponible.
5:30 AM 8:26 PM
Creciente, 4% visible
METAR KBTV 242354Z 00000KT 10SM FEW024 OVC046 16/13 A2995 RMK AO2 RAE09 SLP141 P0000 60020 T01560133 10172 20150 53006

Get Severe Weather Alerts

Thanks for signing up!

Be on the lookout for a verification email in your inbox.

You'll start receiving the daily forecast at 6 AM.

×

10-Day Weather Forecast

Almanac

Astronomía

Jul. 24, 2017 Salida Puesta
Hora real
Crepúsculo civil
Crepúsculo náutico
Crepúsculo astronómico
Luna
Horas de luz
Horas de luz
Tomorrow will be .
, % of the Moon is Illuminated

Extremos de hoy

Máximos del estado Bajos del estado

Community

WunderPhotos

Category 6

Welcome to Category 6. This is the collective home for Weather Underground's featured writeups by Dr. Jeff Masters (right), Bob Henson (left), Chris Burt, and other regular contributors.

Nearby

Calidad del aire

  Calidad del aire Índice AQ Contaminante
Not available.

Grosos de nieve

Estación Profundido Altura

Actividad de terremotos

Ciudad Distance Mag. Tiempo y dato
Magnitud mínima muestra es 2,5.

Temperaturas de aguas costeras

Lugar Temperatura

Stations

Estaciones meteorológicas cercanas

Ubicación de la estación Temp. Vientos helados Punto de rocío Humedad Viento Precip. Alt Actualizado Tipo
                   

Watches & Warnings

There are currently no watches in effect.